Time;durP1;ratioP1;P1;durP2;ratioP2;P2;SDS_P1;SDS_P2;PMS_P1;PMS_P2;Temp;Humidity;BMP_temperature;BMP_pressure;BME280_temperature;BME280_humidity;BME280_pressure;Samples;Min_cycle;Max_cycle;Signal;HPM_P1;HPM_P2
2023/01/29 00:00:11;;;;;;;21.85;13.27;;;;;;;;;;4953735;29;20496;-67
2023/01/29 00:02:37;;;;;;;22.10;13.00;;;;;;;;;;4968703;28;20712;-67
2023/01/29 00:05:05;;;;;;;19.85;13.02;;;;;;;;;;4971021;28;20043;-67
2023/01/29 00:07:31;;;;;;;21.67;12.93;;;;;;;;;;4971412;28;20189;-67
2023/01/29 00:09:57;;;;;;;21.55;12.80;;;;;;;;;;4953738;28;20157;-67
2023/01/29 00:12:23;;;;;;;23.77;13.95;;;;;;;;;;4971761;28;20049;-67
2023/01/29 00:14:49;;;;;;;23.45;13.68;;;;;;;;;;4971726;28;20051;-67
2023/01/29 00:17:15;;;;;;;25.55;12.65;;;;;;;;;;4947808;28;20644;-67
2023/01/29 00:19:41;;;;;;;22.90;13.15;;;;;;;;;;4963780;28;20051;-67
2023/01/29 00:22:07;;;;;;;23.35;13.65;;;;;;;;;;4962119;28;20054;-67
2023/01/29 00:24:33;;;;;;;20.08;12.65;;;;;;;;;;4952599;28;20386;-67
2023/01/29 00:26:59;;;;;;;23.35;12.77;;;;;;;;;;4968169;28;20055;-67
2023/01/29 00:29:25;;;;;;;23.77;12.98;;;;;;;;;;4972539;28;20046;-67
2023/01/29 00:31:51;;;;;;;22.90;13.10;;;;;;;;;;4972041;28;20096;-67
2023/01/29 00:34:17;;;;;;;25.23;12.90;;;;;;;;;;4967041;28;20035;-67
2023/01/29 00:36:44;;;;;;;21.48;12.68;;;;;;;;;;4952842;28;20047;-67
2023/01/29 00:39:10;;;;;;;21.00;13.40;;;;;;;;;;4952551;28;20038;-67
2023/01/29 00:49:51;;;;;;;21.23;13.02;;;;;;;;;;4952903;28;20470;-67
2023/01/29 00:52:23;;;;;;;26.05;14.55;;;;;;;;;;4964744;28;20117;-67
2023/01/29 00:54:50;;;;;;;21.13;13.00;;;;;;;;;;4971745;28;20097;-67
2023/01/29 00:57:16;;;;;;;22.48;14.55;;;;;;;;;;4971865;28;20138;-67
2023/01/29 00:59:42;;;;;;;23.65;15.50;;;;;;;;;;4971332;28;20473;-67
2023/01/29 01:04:53;;;;;;;23.80;14.10;;;;;;;;;;4971418;28;20086;-67
2023/01/29 01:07:19;;;;;;;22.50;13.38;;;;;;;;;;4971245;28;20051;-67
2023/01/29 01:12:30;;;;;;;23.17;13.82;;;;;;;;;;4957375;28;20047;-67
2023/01/29 01:14:57;;;;;;;22.65;13.23;;;;;;;;;;4953341;28;20047;-67
2023/01/29 01:17:23;;;;;;;23.17;13.27;;;;;;;;;;4971090;28;20139;-67
2023/01/29 01:19:49;;;;;;;25.55;14.10;;;;;;;;;;4971025;28;20066;-67
2023/01/29 01:22:15;;;;;;;21.25;13.23;;;;;;;;;;4970993;28;20517;-67
2023/01/29 01:24:41;;;;;;;21.45;13.15;;;;;;;;;;4971302;28;20039;-67
2023/01/29 01:27:08;;;;;;;22.83;13.93;;;;;;;;;;4953042;28;20525;-67
2023/01/29 01:29:34;;;;;;;21.33;13.73;;;;;;;;;;4951560;29;20043;-67
2023/01/29 01:32:00;;;;;;;20.48;13.52;;;;;;;;;;4952009;29;20486;-67
2023/01/29 01:34:26;;;;;;;22.40;14.13;;;;;;;;;;4951692;29;20497;-67
2023/01/29 01:36:52;;;;;;;22.45;13.80;;;;;;;;;;4951693;29;20379;-67
2023/01/29 01:39:18;;;;;;;23.55;13.80;;;;;;;;;;4951600;29;20065;-67
2023/01/29 01:41:45;;;;;;;21.38;12.90;;;;;;;;;;4952119;29;20515;-67
2023/01/29 01:44:30;;;;;;;20.80;14.02;;;;;;;;;;4951355;29;20121;-67
2023/01/29 01:46:56;;;;;;;25.58;14.10;;;;;;;;;;4951915;29;20151;-67
2023/01/29 01:49:23;;;;;;;21.55;14.07;;;;;;;;;;4934467;29;20118;-67
2023/01/29 01:51:51;;;;;;;21.60;13.23;;;;;;;;;;4951233;29;20058;-67
2023/01/29 01:54:20;;;;;;;21.95;13.95;;;;;;;;;;4934193;29;20070;-67
2023/01/29 01:56:49;;;;;;;23.33;13.00;;;;;;;;;;4951942;29;20122;-67
2023/01/29 01:59:17;;;;;;;22.50;13.05;;;;;;;;;;4951222;29;20044;-67
2023/01/29 02:01:48;;;;;;;24.50;13.07;;;;;;;;;;4951495;29;20035;-67
2023/01/29 02:09:52;;;;;;;22.80;13.27;;;;;;;;;;4964052;28;20541;-67
2023/01/29 02:12:19;;;;;;;24.88;13.98;;;;;;;;;;4971041;28;20861;-67
2023/01/29 02:14:45;;;;;;;24.90;13.43;;;;;;;;;;4970350;28;20544;-67
2023/01/29 02:17:13;;;;;;;23.13;13.65;;;;;;;;;;4970524;28;20098;-67
2023/01/29 02:19:50;;;;;;;19.23;13.40;;;;;;;;;;4970610;28;20092;-67
2023/01/29 02:22:19;;;;;;;20.05;13.13;;;;;;;;;;4970375;28;20263;-67
2023/01/29 02:24:57;;;;;;;23.58;14.18;;;;;;;;;;4970188;28;20046;-67
2023/01/29 02:27:26;;;;;;;21.08;13.05;;;;;;;;;;4973519;28;20050;-67
2023/01/29 02:29:56;;;;;;;22.70;13.40;;;;;;;;;;4974115;28;20050;-67
2023/01/29 02:32:28;;;;;;;21.30;13.57;;;;;;;;;;4974260;28;20058;-67
2023/01/29 02:35:24;;;;;;;24.38;13.85;;;;;;;;;;4974254;28;20042;-67
2023/01/29 02:37:50;;;;;;;22.02;13.18;;;;;;;;;;4973571;28;20040;-67
2023/01/29 02:40:31;;;;;;;20.40;13.43;;;;;;;;;;4956786;28;20034;-67
2023/01/29 02:43:03;;;;;;;24.60;13.68;;;;;;;;;;4974159;28;20038;-67
2023/01/29 02:45:30;;;;;;;21.73;13.77;;;;;;;;;;4973819;28;20486;-67
2023/01/29 02:48:00;;;;;;;21.60;13.50;;;;;;;;;;4974214;28;20134;-67
2023/01/29 02:50:32;;;;;;;20.20;14.15;;;;;;;;;;4974333;28;20069;-67
2023/01/29 02:53:06;;;;;;;22.10;12.75;;;;;;;;;;4973745;28;20035;-67
2023/01/29 02:55:39;;;;;;;23.48;13.75;;;;;;;;;;4973756;28;20142;-67
2023/01/29 02:58:09;;;;;;;21.42;13.65;;;;;;;;;;4973707;28;20042;-67
2023/01/29 03:00:37;;;;;;;21.73;13.38;;;;;;;;;;4956743;28;20718;-67
2023/01/29 03:03:23;;;;;;;28.73;13.90;;;;;;;;;;4973581;28;20043;-67
2023/01/29 03:05:52;;;;;;;20.17;12.70;;;;;;;;;;4973164;28;20122;-67
2023/01/29 03:08:21;;;;;;;21.92;13.23;;;;;;;;;;4973585;28;20122;-67
2023/01/29 03:10:50;;;;;;;21.00;13.45;;;;;;;;;;4973870;28;20042;-67
2023/01/29 03:13:38;;;;;;;21.95;13.40;;;;;;;;;;4961163;28;20164;-67
2023/01/29 03:16:09;;;;;;;22.45;13.85;;;;;;;;;;4954252;29;20050;-67
2023/01/29 03:18:42;;;;;;;19.27;13.00;;;;;;;;;;4954417;29;20035;-67
2023/01/29 03:21:49;;;;;;;20.85;13.20;;;;;;;;;;4953460;29;20087;-67
2023/01/29 03:32:18;;;;;;;21.08;13.85;;;;;;;;;;4973309;28;20042;-66
2023/01/29 03:34:47;;;;;;;23.08;13.25;;;;;;;;;;4955690;28;20453;-66
2023/01/29 03:37:13;;;;;;;21.92;13.98;;;;;;;;;;4972129;28;20130;-66
2023/01/29 03:39:39;;;;;;;20.02;13.52;;;;;;;;;;4972764;28;20134;-67
2023/01/29 03:42:35;;;;;;;22.10;14.32;;;;;;;;;;4973255;28;20045;-66
2023/01/29 03:45:21;;;;;;;21.67;13.68;;;;;;;;;;4919805;28;20051;-66
2023/01/29 03:47:56;;;;;;;22.95;13.65;;;;;;;;;;4972883;28;20038;-66
2023/01/29 03:50:41;;;;;;;23.13;13.88;;;;;;;;;;4972686;28;20039;-66
2023/01/29 03:53:07;;;;;;;23.33;14.65;;;;;;;;;;4972918;28;20050;-66
2023/01/29 03:55:54;;;;;;;21.90;14.43;;;;;;;;;;4972914;28;20126;-66
2023/01/29 03:58:23;;;;;;;23.27;14.95;;;;;;;;;;4972316;28;20422;-66
2023/01/29 04:00:57;;;;;;;25.33;14.27;;;;;;;;;;4973068;28;20126;-66
2023/01/29 04:03:26;;;;;;;23.75;14.02;;;;;;;;;;4972419;28;20130;-66
2023/01/29 04:06:04;;;;;;;23.90;14.40;;;;;;;;;;4972580;28;20065;-66
2023/01/29 04:08:31;;;;;;;22.75;15.00;;;;;;;;;;4970936;28;20067;-66
2023/01/29 04:11:01;;;;;;;23.20;14.88;;;;;;;;;;4953573;28;20130;-66
2023/01/29 04:13:32;;;;;;;27.17;15.18;;;;;;;;;;4965764;28;20034;-66
2023/01/29 04:15:59;;;;;;;27.13;15.75;;;;;;;;;;4972272;28;20731;-66
2023/01/29 04:18:25;;;;;;;26.42;16.15;;;;;;;;;;4972524;28;20035;-66
2023/01/29 04:20:51;;;;;;;25.92;16.60;;;;;;;;;;4971692;28;20058;-66
2023/01/29 04:23:27;;;;;;;23.33;15.02;;;;;;;;;;4972389;28;20042;-66
2023/01/29 04:25:58;;;;;;;25.38;16.45;;;;;;;;;;4946311;29;20516;-66
2023/01/29 04:28:39;;;;;;;27.27;16.75;;;;;;;;;;4952778;29;20486;-66
2023/01/29 04:31:07;;;;;;;29.73;17.80;;;;;;;;;;4953026;29;20086;-66
2023/01/29 04:33:47;;;;;;;28.33;17.85;;;;;;;;;;4952974;29;20123;-66
2023/01/29 04:36:25;;;;;;;27.80;17.40;;;;;;;;;;4952250;29;20044;-66
2023/01/29 04:39:10;;;;;;;26.85;18.10;;;;;;;;;;4952943;29;20047;-66
2023/01/29 04:41:42;;;;;;;27.17;17.80;;;;;;;;;;4952819;29;20031;-66
2023/01/29 04:44:14;;;;;;;28.63;17.95;;;;;;;;;;4952855;29;20051;-66
2023/01/29 04:46:40;;;;;;;29.25;18.90;;;;;;;;;;4952664;29;20043;-66
2023/01/29 04:49:12;;;;;;;31.33;19.05;;;;;;;;;;4951925;28;20478;-66
2023/01/29 04:51:38;;;;;;;;;;;;;;;;;;4952911;29;20050;-66
2023/01/29 04:54:13;;;;;;;28.45;18.00;;;;;;;;;;4952621;29;19969;-66
2023/01/29 04:56:55;;;;;;;27.77;17.75;;;;;;;;;;4952393;29;20043;-66
2023/01/29 04:59:25;;;;;;;29.27;18.38;;;;;;;;;;4952572;29;20054;-66
2023/01/29 05:01:52;;;;;;;30.92;19.27;;;;;;;;;;4952484;29;20686;-66
2023/01/29 05:04:20;;;;;;;28.95;18.27;;;;;;;;;;4952001;29;20047;-66
2023/01/29 05:06:46;;;;;;;28.55;18.85;;;;;;;;;;4952144;29;20046;-66
2023/01/29 05:09:14;;;;;;;30.83;19.05;;;;;;;;;;4959311;28;20043;-66
2023/01/29 05:11:40;;;;;;;30.58;18.40;;;;;;;;;;4970867;28;20097;-66
2023/01/29 05:14:07;;;;;;;31.75;18.60;;;;;;;;;;4970989;28;20047;-66
2023/01/29 05:16:42;;;;;;;31.35;19.33;;;;;;;;;;4971459;28;20041;-66
2023/01/29 05:19:09;;;;;;;33.50;18.83;;;;;;;;;;4971061;28;20548;-66
2023/01/29 05:21:35;;;;;;;29.45;19.25;;;;;;;;;;4971053;28;20058;-66
2023/01/29 05:24:10;;;;;;;28.77;18.92;;;;;;;;;;4954146;28;20062;-66
2023/01/29 05:29:21;;;;;;;31.45;18.85;;;;;;;;;;4953630;28;20059;-66
2023/01/29 05:31:47;;;;;;;28.05;18.30;;;;;;;;;;4971231;28;20505;-66
2023/01/29 05:34:13;;;;;;;31.45;19.83;;;;;;;;;;4970782;28;20383;-66
2023/01/29 05:36:39;;;;;;;30.70;20.00;;;;;;;;;;4971078;28;20125;-66
2023/01/29 05:39:05;;;;;;;29.88;19.48;;;;;;;;;;4971193;28;20074;-66
2023/01/29 05:41:31;;;;;;;27.42;18.60;;;;;;;;;;4970575;28;20042;-66
2023/01/29 05:43:57;;;;;;;31.73;18.48;;;;;;;;;;4971189;28;20062;-66
2023/01/29 05:46:24;;;;;;;28.50;18.30;;;;;;;;;;4970602;28;20050;-66
2023/01/29 05:48:52;;;;;;;31.88;20.80;;;;;;;;;;4970819;28;20074;-66
2023/01/29 05:51:18;;;;;;;32.88;20.30;;;;;;;;;;4971123;28;20387;-66
2023/01/29 05:53:44;;;;;;;34.20;19.95;;;;;;;;;;4971016;28;20050;-66
2023/01/29 05:56:10;;;;;;;29.92;19.65;;;;;;;;;;4970548;28;20466;-66
2023/01/29 05:58:36;;;;;;;31.60;20.08;;;;;;;;;;4971055;28;20565;-66
2023/01/29 06:01:14;;;;;;;30.00;20.13;;;;;;;;;;4970084;28;20042;-66
2023/01/29 06:03:40;;;;;;;30.60;20.00;;;;;;;;;;4970374;28;20035;-66
2023/01/29 06:06:07;;;;;;;32.60;20.55;;;;;;;;;;4953125;28;20109;-66
2023/01/29 06:08:33;;;;;;;34.88;20.88;;;;;;;;;;4953032;28;20174;-66
2023/01/29 06:10:59;;;;;;;30.52;20.60;;;;;;;;;;4970131;28;20521;-66
2023/01/29 06:13:25;;;;;;;28.65;19.58;;;;;;;;;;4957765;28;20512;-66
2023/01/29 06:15:51;;;;;;;32.00;20.48;;;;;;;;;;4951616;29;20043;-66
2023/01/29 06:18:17;;;;;;;34.72;20.67;;;;;;;;;;4951060;29;20039;-66
2023/01/29 06:20:43;;;;;;;29.98;19.83;;;;;;;;;;4951213;29;20513;-66
2023/01/29 06:23:09;;;;;;;28.73;20.27;;;;;;;;;;4950980;29;20134;-66
2023/01/29 06:25:35;;;;;;;32.58;21.17;;;;;;;;;;4956926;28;21179;-66
2023/01/29 06:28:01;;;;;;;30.67;20.15;;;;;;;;;;4970448;28;20466;-66
2023/01/29 06:30:27;;;;;;;34.92;20.65;;;;;;;;;;4970759;28;20053;-66
2023/01/29 06:32:57;;;;;;;30.77;20.45;;;;;;;;;;4970122;28;20073;-66
2023/01/29 06:35:23;;;;;;;32.83;20.67;;;;;;;;;;4953285;28;20050;-66
2023/01/29 06:37:49;;;;;;;30.63;19.88;;;;;;;;;;4970452;28;20070;-66
2023/01/29 06:40:16;;;;;;;31.10;21.05;;;;;;;;;;4952826;28;20043;-66
2023/01/29 06:42:42;;;;;;;30.48;19.50;;;;;;;;;;4970473;28;20401;-66
2023/01/29 06:45:08;;;;;;;32.28;21.02;;;;;;;;;;4970568;28;20049;-66
2023/01/29 06:47:34;;;;;;;31.05;20.85;;;;;;;;;;4969939;28;20078;-66
2023/01/29 06:50:00;;;;;;;31.80;19.95;;;;;;;;;;4970525;28;20039;-66
2023/01/29 06:52:27;;;;;;;30.88;20.35;;;;;;;;;;4970347;28;20481;-66
2023/01/29 06:54:56;;;;;;;31.88;21.00;;;;;;;;;;4970084;28;20127;-66
2023/01/29 06:57:22;;;;;;;33.50;21.65;;;;;;;;;;4970016;28;20042;-66
2023/01/29 06:59:48;;;;;;;32.58;21.15;;;;;;;;;;4970454;28;20529;-66
2023/01/29 07:02:15;;;;;;;33.35;21.20;;;;;;;;;;4970221;28;20047;-66
2023/01/29 07:04:41;;;;;;;30.50;19.58;;;;;;;;;;4970241;28;20057;-66
2023/01/29 07:07:12;;;;;;;31.85;20.45;;;;;;;;;;4970540;28;20065;-66
2023/01/29 07:09:39;;;;;;;33.35;21.45;;;;;;;;;;4959120;28;20043;-66
2023/01/29 07:12:05;;;;;;;31.02;20.52;;;;;;;;;;4953711;28;20044;-66
2023/01/29 07:14:31;;;;;;;31.60;21.02;;;;;;;;;;4973363;28;20094;-66
2023/01/29 07:16:57;;;;;;;32.67;21.25;;;;;;;;;;4973612;28;20556;-66
2023/01/29 07:19:23;;;;;;;33.85;21.30;;;;;;;;;;4973146;28;20125;-66
2023/01/29 07:21:49;;;;;;;32.17;21.88;;;;;;;;;;4973768;28;20079;-66
2023/01/29 07:24:15;;;;;;;32.60;21.73;;;;;;;;;;4973534;28;20049;-66
2023/01/29 07:26:41;;;;;;;34.45;22.13;;;;;;;;;;4958400;28;20085;-66
2023/01/29 07:29:08;;;;;;;32.50;21.10;;;;;;;;;;4954115;29;20051;-66
2023/01/29 07:31:34;;;;;;;33.22;22.23;;;;;;;;;;4954148;29;20517;-66
2023/01/29 07:34:00;;;;;;;35.47;21.42;;;;;;;;;;4953510;29;20078;-66
2023/01/29 07:36:26;;;;;;;36.25;22.00;;;;;;;;;;4954145;29;20383;-66
2023/01/29 07:38:52;;;;;;;36.25;22.83;;;;;;;;;;4953855;29;20070;-66
2023/01/29 07:41:18;;;;;;;34.88;22.60;;;;;;;;;;4953544;29;20765;-66
2023/01/29 07:43:44;;;;;;;34.65;21.40;;;;;;;;;;4953881;29;20390;-66
2023/01/29 07:46:10;;;;;;;35.67;22.27;;;;;;;;;;4953454;29;20047;-66
2023/01/29 07:48:36;;;;;;;34.97;21.90;;;;;;;;;;4953534;29;20043;-66
2023/01/29 07:51:02;;;;;;;35.33;22.42;;;;;;;;;;4953835;29;20051;-66
2023/01/29 07:53:28;;;;;;;34.67;22.30;;;;;;;;;;4953034;29;20040;-66
2023/01/29 07:55:54;;;;;;;35.58;21.92;;;;;;;;;;4953356;29;20049;-66
2023/01/29 07:58:20;;;;;;;38.03;22.77;;;;;;;;;;4953793;29;20393;-66
2023/01/29 08:00:46;;;;;;;36.67;23.23;;;;;;;;;;4953310;29;20047;-66
2023/01/29 08:03:15;;;;;;;34.53;22.60;;;;;;;;;;4953097;29;20122;-66
2023/01/29 08:05:41;;;;;;;37.42;22.65;;;;;;;;;;4953474;29;20043;-66
2023/01/29 08:08:07;;;;;;;40.75;23.63;;;;;;;;;;4953272;29;20047;-66
2023/01/29 08:10:37;;;;;;;35.75;22.80;;;;;;;;;;4971115;28;20051;-66
2023/01/29 08:13:03;;;;;;;38.20;22.73;;;;;;;;;;4972627;28;20146;-66
2023/01/29 08:15:29;;;;;;;39.20;23.23;;;;;;;;;;4972409;28;20134;-66
2023/01/29 08:17:55;;;;;;;40.13;23.27;;;;;;;;;;4972335;28;20043;-66
2023/01/29 08:20:21;;;;;;;37.75;23.67;;;;;;;;;;4972363;28;20634;-66
2023/01/29 08:22:47;;;;;;;38.50;22.90;;;;;;;;;;4972510;28;20043;-66
2023/01/29 08:25:14;;;;;;;40.28;23.13;;;;;;;;;;4968119;28;20046;-66
2023/01/29 08:27:41;;;;;;;40.33;23.80;;;;;;;;;;4953032;29;20047;-66
2023/01/29 08:30:07;;;;;;;38.80;22.85;;;;;;;;;;4953110;29;20054;-66
2023/01/29 08:32:34;;;;;;;39.40;22.58;;;;;;;;;;4952701;29;20097;-66
2023/01/29 08:35:00;;;;;;;39.20;23.73;;;;;;;;;;4952654;29;20047;-66
2023/01/29 08:37:26;;;;;;;40.08;23.42;;;;;;;;;;4935725;29;20047;-66
2023/01/29 08:39:52;;;;;;;41.35;23.83;;;;;;;;;;4952705;29;20043;-66
2023/01/29 08:42:18;;;;;;;37.58;22.67;;;;;;;;;;4952748;29;20075;-66
2023/01/29 08:44:44;;;;;;;40.08;22.73;;;;;;;;;;4952699;29;20474;-66
2023/01/29 08:47:10;;;;;;;41.05;24.27;;;;;;;;;;4952046;29;20057;-66
2023/01/29 08:49:36;;;;;;;39.10;23.13;;;;;;;;;;4952888;29;20130;-66
2023/01/29 08:52:02;;;;;;;39.90;22.92;;;;;;;;;;4952480;29;20051;-66
2023/01/29 08:54:28;;;;;;;40.85;22.35;;;;;;;;;;4952253;29;20055;-66
2023/01/29 08:56:54;;;;;;;38.47;22.85;;;;;;;;;;4935143;29;20126;-66
2023/01/29 08:59:21;;;;;;;38.22;22.95;;;;;;;;;;4952628;29;20043;-66
2023/01/29 09:01:47;;;;;;;38.75;21.95;;;;;;;;;;4952076;29;20043;-66
2023/01/29 09:04:13;;;;;;;39.60;23.45;;;;;;;;;;4952033;29;20054;-66
2023/01/29 09:06:39;;;;;;;39.00;22.38;;;;;;;;;;4952332;29;20054;-66
2023/01/29 09:09:06;;;;;;;39.42;23.63;;;;;;;;;;4958299;28;20049;-66
2023/01/29 09:11:32;;;;;;;38.42;22.05;;;;;;;;;;4971451;28;20575;-66
2023/01/29 09:13:58;;;;;;;37.63;22.65;;;;;;;;;;4971217;28;20046;-66
2023/01/29 09:16:24;;;;;;;35.58;20.63;;;;;;;;;;4971097;28;20126;-66
2023/01/29 09:18:53;;;;;;;40.22;22.75;;;;;;;;;;4971500;28;20066;-66
2023/01/29 09:21:19;;;;;;;39.38;21.58;;;;;;;;;;4971165;28;20143;-66
2023/01/29 09:23:45;;;;;;;41.63;22.75;;;;;;;;;;4971114;28;20111;-66
2023/01/29 09:26:11;;;;;;;38.05;22.10;;;;;;;;;;4960682;28;20545;-66
2023/01/29 09:28:37;;;;;;;43.60;24.40;;;;;;;;;;4951621;29;20043;-66
2023/01/29 09:31:03;;;;;;;38.47;23.17;;;;;;;;;;4951695;29;20051;-66
2023/01/29 09:33:30;;;;;;;40.80;23.75;;;;;;;;;;4951764;29;20039;-66
2023/01/29 09:35:56;;;;;;;40.40;23.17;;;;;;;;;;4951669;28;20104;-66
2023/01/29 09:38:22;;;;;;;39.47;23.23;;;;;;;;;;4951331;29;20544;-66
2023/01/29 09:40:54;;;;;;;41.97;23.27;;;;;;;;;;4951724;29;20122;-66
2023/01/29 09:43:23;;;;;;;38.88;23.38;;;;;;;;;;4951633;29;20043;-66
2023/01/29 09:45:55;;;;;;;38.33;22.80;;;;;;;;;;4951452;29;20039;-66
2023/01/29 09:48:24;;;;;;;40.28;23.60;;;;;;;;;;4951556;29;20134;-66
2023/01/29 09:50:53;;;;;;;36.95;22.15;;;;;;;;;;4934466;29;20071;-66
2023/01/29 09:53:23;;;;;;;40.83;23.23;;;;;;;;;;4951162;29;20151;-67
2023/01/29 09:55:58;;;;;;;39.80;23.65;;;;;;;;;;4951856;29;20043;-66
2023/01/29 09:58:27;;;;;;;39.70;21.63;;;;;;;;;;4951665;29;20043;-66
2023/01/29 10:01:13;;;;;;;36.60;22.23;;;;;;;;;;4951107;29;20035;-66
2023/01/29 10:03:58;;;;;;;37.05;21.55;;;;;;;;;;4950903;29;20043;-66
2023/01/29 10:06:34;;;;;;;39.65;23.48;;;;;;;;;;4934200;29;20049;-66
2023/01/29 10:09:13;;;;;;;40.70;23.27;;;;;;;;;;4956881;28;20042;-66
2023/01/29 10:11:45;;;;;;;41.83;24.17;;;;;;;;;;4970873;28;20093;-66
2023/01/29 10:14:30;;;;;;;39.10;23.95;;;;;;;;;;4970032;28;20047;-66
2023/01/29 10:17:19;;;;;;;40.45;23.52;;;;;;;;;;4970640;28;20457;-66
2023/01/29 10:19:57;;;;;;;35.50;21.13;;;;;;;;;;4942661;28;20477;-66
2023/01/29 10:22:23;;;;;;;36.90;21.77;;;;;;;;;;4970019;28;20082;-66
2023/01/29 10:24:55;;;;;;;37.10;21.20;;;;;;;;;;4952998;28;20112;-66
2023/01/29 10:27:21;;;;;;;37.72;21.88;;;;;;;;;;4970792;28;20045;-66
2023/01/29 10:29:50;;;;;;;36.28;21.05;;;;;;;;;;4970279;28;20082;-66
2023/01/29 10:32:18;;;;;;;40.75;24.08;;;;;;;;;;4970828;28;20565;-66
2023/01/29 10:35:03;;;;;;;39.85;23.80;;;;;;;;;;4970331;28;20043;-66
2023/01/29 10:37:37;;;;;;;43.03;24.77;;;;;;;;;;4970304;28;20706;-66
2023/01/29 10:40:12;;;;;;;40.70;23.27;;;;;;;;;;4970497;28;20038;-66
2023/01/29 10:42:45;;;;;;;36.22;23.50;;;;;;;;;;4970598;28;20374;-66
2023/01/29 10:45:17;;;;;;;39.47;22.55;;;;;;;;;;4970019;28;20513;-66
2023/01/29 10:48:03;;;;;;;39.70;23.50;;;;;;;;;;4972497;28;20050;-66
2023/01/29 10:50:32;;;;;;;42.63;23.50;;;;;;;;;;4973901;28;20070;-66
2023/01/29 10:52:58;;;;;;;39.03;23.02;;;;;;;;;;4973900;28;20086;-66
2023/01/29 10:55:41;;;;;;;40.75;22.55;;;;;;;;;;4973974;28;20046;-66
2023/01/29 10:58:07;;;;;;;;;;;;;;;;;;4957271;28;20505;-66
2023/01/29 11:00:40;;;;;;;37.15;22.38;;;;;;;;;;4973529;28;20017;-66
2023/01/29 11:03:38;;;;;;;39.80;22.95;;;;;;;;;;4973786;28;20060;-66
2023/01/29 11:06:19;;;;;;;40.22;23.08;;;;;;;;;;4930584;28;20078;-66
2023/01/29 11:08:54;;;;;;;38.83;23.35;;;;;;;;;;4973098;28;20046;-66
2023/01/29 11:11:21;;;;;;;38.42;23.73;;;;;;;;;;4973765;28;20409;-66
2023/01/29 11:14:07;;;;;;;41.58;23.73;;;;;;;;;;4957729;28;20381;-66
2023/01/29 11:16:42;;;;;;;39.50;22.23;;;;;;;;;;4937032;29;20399;-66
2023/01/29 11:19:08;;;;;;;41.20;25.55;;;;;;;;;;4937181;29;20035;-66
2023/01/29 11:21:49;;;;;;;43.60;23.80;;;;;;;;;;4953533;29;20059;-66
2023/01/29 11:24:17;;;;;;;44.05;25.27;;;;;;;;;;4954246;29;20047;-66
2023/01/29 11:26:45;;;;;;;35.30;21.98;;;;;;;;;;4968887;28;20043;-66
2023/01/29 11:29:32;;;;;;;40.75;23.98;;;;;;;;;;4973914;28;20038;-66
2023/01/29 11:31:59;;;;;;;40.58;22.85;;;;;;;;;;4941168;28;20186;-66
2023/01/29 11:34:31;;;;;;;37.15;22.23;;;;;;;;;;4973879;28;20047;-66
2023/01/29 11:36:58;;;;;;;40.20;24.10;;;;;;;;;;4973819;28;20039;-66
2023/01/29 11:39:26;;;;;;;40.42;24.05;;;;;;;;;;4974131;28;20070;-66
2023/01/29 11:41:52;;;;;;;40.95;23.77;;;;;;;;;;4973933;28;20046;-66
2023/01/29 11:44:19;;;;;;;42.20;23.38;;;;;;;;;;4973783;28;20039;-66
2023/01/29 11:46:46;;;;;;;43.60;25.13;;;;;;;;;;4973824;28;20038;-66
2023/01/29 11:49:21;;;;;;;40.97;24.35;;;;;;;;;;4973901;28;20761;-66
2023/01/29 11:51:52;;;;;;;39.20;24.60;;;;;;;;;;4973619;28;20462;-66
2023/01/29 11:54:19;;;;;;;43.85;23.10;;;;;;;;;;4973907;28;20171;-66
2023/01/29 11:56:46;;;;;;;43.47;23.38;;;;;;;;;;4956202;28;20058;-66
2023/01/29 11:59:30;;;;;;;42.58;24.75;;;;;;;;;;4954716;28;20050;-66
2023/01/29 12:02:03;;;;;;;39.80;21.98;;;;;;;;;;4973680;28;20038;-66
2023/01/29 12:04:29;;;;;;;;;;;;;;;;;;4974045;28;20039;-66
2023/01/29 12:06:55;;;;;;;39.58;23.23;;;;;;;;;;4973296;28;20364;-66
2023/01/29 12:09:28;;;;;;;37.05;21.30;;;;;;;;;;4964745;28;20047;-66
2023/01/29 12:11:54;;;;;;;35.85;21.88;;;;;;;;;;4954871;28;20179;-66
2023/01/29 12:14:38;;;;;;;42.75;24.38;;;;;;;;;;4972942;28;20046;-66
2023/01/29 12:17:22;;;;;;;38.13;23.88;;;;;;;;;;4973605;28;20030;-66
2023/01/29 12:19:58;;;;;;;38.60;21.95;;;;;;;;;;4973042;28;20062;-66
2023/01/29 12:22:40;;;;;;;37.33;22.92;;;;;;;;;;4972951;28;20755;-66
2023/01/29 12:25:12;;;;;;;37.72;22.48;;;;;;;;;;4971214;28;20405;-66
2023/01/29 12:27:46;;;;;;;43.88;22.00;;;;;;;;;;4954122;29;20051;-66
2023/01/29 12:30:17;;;;;;;32.85;20.65;;;;;;;;;;4953330;29;20417;-66
2023/01/29 12:32:54;;;;;;;34.33;20.70;;;;;;;;;;4953831;29;20062;-66
2023/01/29 12:35:31;;;;;;;40.05;22.38;;;;;;;;;;4953393;29;20079;-66
2023/01/29 12:37:58;;;;;;;37.53;21.40;;;;;;;;;;4953400;29;20090;-66
2023/01/29 12:40:30;;;;;;;38.17;21.65;;;;;;;;;;4953599;29;20098;-66
2023/01/29 12:43:01;;;;;;;38.40;21.83;;;;;;;;;;4953177;29;20039;-66
2023/01/29 12:45:27;;;;;;;37.53;21.42;;;;;;;;;;4953211;29;20079;-66
2023/01/29 12:47:56;;;;;;;34.65;22.23;;;;;;;;;;4953651;29;20542;-66
2023/01/29 12:50:26;;;;;;;39.97;23.50;;;;;;;;;;4952849;29;20136;-66
2023/01/29 12:52:52;;;;;;;38.88;21.30;;;;;;;;;;4953059;29;20694;-66
2023/01/29 12:55:24;;;;;;;36.28;21.85;;;;;;;;;;4953263;29;20130;-66
2023/01/29 12:57:53;;;;;;;37.63;22.75;;;;;;;;;;4936156;29;20451;-66
2023/01/29 13:00:21;;;;;;;39.65;22.67;;;;;;;;;;4953432;29;20047;-66
2023/01/29 13:02:51;;;;;;;41.72;23.52;;;;;;;;;;4953521;29;20035;-66
2023/01/29 13:05:17;;;;;;;38.10;22.42;;;;;;;;;;4952851;29;20058;-66
2023/01/29 13:07:48;;;;;;;39.28;23.70;;;;;;;;;;4953106;29;20139;-66
2023/01/29 13:10:17;;;;;;;42.13;23.98;;;;;;;;;;4968242;28;20045;-66
2023/01/29 13:12:49;;;;;;;45.15;23.95;;;;;;;;;;4971985;28;20116;-66
2023/01/29 13:15:20;;;;;;;43.95;24.35;;;;;;;;;;4972037;28;20039;-66
2023/01/29 13:17:48;;;;;;;43.60;25.20;;;;;;;;;;4972177;28;20046;-66
2023/01/29 13:20:14;;;;;;;39.60;23.52;;;;;;;;;;4971467;28;20081;-66
2023/01/29 13:22:42;;;;;;;39.45;24.30;;;;;;;;;;4972183;28;20441;-66
2023/01/29 13:25:14;;;;;;;37.58;23.33;;;;;;;;;;4969362;28;20058;-66
2023/01/29 13:27:42;;;;;;;41.20;24.40;;;;;;;;;;4952653;29;20043;-66
2023/01/29 13:30:23;;;;;;;45.72;23.95;;;;;;;;;;4952773;29;20589;-66
2023/01/29 13:32:51;;;;;;;43.72;23.67;;;;;;;;;;4953000;29;20050;-66
2023/01/29 13:35:18;;;;;;;41.35;23.70;;;;;;;;;;4951772;29;20093;-66
2023/01/29 13:37:49;;;;;;;39.58;23.20;;;;;;;;;;4952959;29;20058;-66
2023/01/29 13:40:26;;;;;;;38.63;22.90;;;;;;;;;;4952484;29;20036;-66
2023/01/29 13:42:53;;;;;;;38.13;23.15;;;;;;;;;;4952167;29;20070;-66
2023/01/29 13:45:23;;;;;;;40.55;23.80;;;;;;;;;;4952409;29;20043;-66
2023/01/29 13:47:50;;;;;;;38.45;23.00;;;;;;;;;;4952428;29;20054;-67
2023/01/29 13:50:20;;;;;;;38.70;21.58;;;;;;;;;;4952182;29;20085;-66
2023/01/29 13:52:46;;;;;;;42.20;24.50;;;;;;;;;;4952479;29;20071;-66
2023/01/29 13:55:21;;;;;;;42.28;23.58;;;;;;;;;;4952007;29;20054;-66
2023/01/29 13:57:49;;;;;;;43.65;24.48;;;;;;;;;;4952423;29;20044;-66
2023/01/29 14:00:21;;;;;;;47.78;26.15;;;;;;;;;;4935371;29;20047;-66
2023/01/29 14:02:56;;;;;;;38.78;24.45;;;;;;;;;;4952599;29;20082;-66
2023/01/29 14:05:32;;;;;;;45.22;25.35;;;;;;;;;;4951914;29;20047;-66
2023/01/29 14:08:14;;;;;;;43.13;24.05;;;;;;;;;;4952451;29;20069;-66
2023/01/29 14:10:41;;;;;;;43.58;24.52;;;;;;;;;;4971001;28;20038;-66
2023/01/29 14:13:20;;;;;;;43.20;24.42;;;;;;;;;;4971201;28;20370;-66
2023/01/29 14:16:05;;;;;;;44.63;26.30;;;;;;;;;;4954002;28;20133;-66
2023/01/29 14:18:33;;;;;;;44.70;26.27;;;;;;;;;;4971314;28;20046;-66
2023/01/29 14:21:01;;;;;;;45.53;26.02;;;;;;;;;;4970918;28;20073;-66
2023/01/29 14:23:34;;;;;;;45.15;24.67;;;;;;;;;;4974340;28;20042;-66
2023/01/29 14:26:03;;;;;;;46.70;25.63;;;;;;;;;;4948461;29;20103;-66
2023/01/29 14:28:30;;;;;;;46.45;27.13;;;;;;;;;;4955643;29;20055;-66
2023/01/29 14:30:56;;;;;;;40.33;24.83;;;;;;;;;;4955756;29;20619;-66
2023/01/29 14:33:22;;;;;;;46.25;26.65;;;;;;;;;;4955913;29;20448;-66
2023/01/29 14:35:49;;;;;;;45.35;25.63;;;;;;;;;;4955545;29;20047;-66
2023/01/29 14:38:15;;;;;;;49.47;26.85;;;;;;;;;;4956175;29;20043;-66
2023/01/29 14:40:43;;;;;;;44.50;25.63;;;;;;;;;;4955792;29;20110;-66
2023/01/29 14:43:19;;;;;;;48.05;27.92;;;;;;;;;;4955545;29;20043;-66
2023/01/29 14:45:47;;;;;;;45.60;26.67;;;;;;;;;;4955782;29;20044;-66
2023/01/29 14:48:31;;;;;;;46.35;27.00;;;;;;;;;;4955761;29;20150;-66
2023/01/29 14:50:58;;;;;;;49.63;28.27;;;;;;;;;;4955828;29;20047;-66
2023/01/29 14:53:24;;;;;;;49.85;27.73;;;;;;;;;;4955567;29;20410;-66
2023/01/29 14:56:10;;;;;;;47.63;27.52;;;;;;;;;;4937962;29;20059;-66
2023/01/29 14:58:43;;;;;;;49.30;28.48;;;;;;;;;;4955729;29;20061;-66
2023/01/29 15:01:19;;;;;;;50.65;28.25;;;;;;;;;;4955705;29;20082;-66
2023/01/29 15:03:49;;;;;;;53.58;29.30;;;;;;;;;;4955129;29;20565;-66